sensor_id;sensor_type;location;lat;lon;timestamp;temperature;humidity
9414;DHT22;4746;35.664;139.738;2022-11-21T00:01:21;13.20;99.90
9414;DHT22;4746;35.664;139.738;2022-11-21T00:03:50;13.20;99.90
9414;DHT22;4746;35.664;139.738;2022-11-21T00:06:18;13.20;99.90
9414;DHT22;4746;35.664;139.738;2022-11-21T00:08:46;13.30;99.90
9414;DHT22;4746;35.664;139.738;2022-11-21T00:11:14;13.30;99.90
9414;DHT22;4746;35.664;139.738;2022-11-21T00:13:42;13.30;99.90
9414;DHT22;4746;35.664;139.738;2022-11-21T00:16:12;13.30;99.90
9414;DHT22;4746;35.664;139.738;2022-11-21T00:18:42;13.30;99.90
9414;DHT22;4746;35.664;139.738;2022-11-21T00:21:14;13.30;99.90
9414;DHT22;4746;35.664;139.738;2022-11-21T00:23:44;13.40;99.90
9414;DHT22;4746;35.664;139.738;2022-11-21T00:26:14;13.40;99.90
9414;DHT22;4746;35.664;139.738;2022-11-21T00:28:44;13.40;99.90
9414;DHT22;4746;35.664;139.738;2022-11-21T00:31:20;13.50;99.90
9414;DHT22;4746;35.664;139.738;2022-11-21T00:33:48;13.50;99.90
9414;DHT22;4746;35.664;139.738;2022-11-21T00:36:16;13.60;99.90
9414;DHT22;4746;35.664;139.738;2022-11-21T00:38:44;13.60;99.90
9414;DHT22;4746;35.664;139.738;2022-11-21T00:41:11;13.60;99.90
9414;DHT22;4746;35.664;139.738;2022-11-21T00:43:39;13.60;99.90
9414;DHT22;4746;35.664;139.738;2022-11-21T00:46:06;13.70;99.90
9414;DHT22;4746;35.664;139.738;2022-11-21T00:48:34;13.70;99.90
9414;DHT22;4746;35.664;139.738;2022-11-21T00:51:01;13.70;99.90
9414;DHT22;4746;35.664;139.738;2022-11-21T00:53:29;13.80;99.90
9414;DHT22;4746;35.664;139.738;2022-11-21T00:55:57;13.80;99.90
9414;DHT22;4746;35.664;139.738;2022-11-21T00:58:25;13.90;99.90
9414;DHT22;4746;35.664;139.738;2022-11-21T01:01:05;14.00;99.90
9414;DHT22;4746;35.664;139.738;2022-11-21T01:03:36;14.10;99.90
9414;DHT22;4746;35.664;139.738;2022-11-21T01:06:10;14.20;99.90
9414;DHT22;4746;35.664;139.738;2022-11-21T01:08:41;14.20;99.90
9414;DHT22;4746;35.664;139.738;2022-11-21T01:11:12;14.40;99.90
9414;DHT22;4746;35.664;139.738;2022-11-21T01:13:42;14.50;99.90
9414;DHT22;4746;35.664;139.738;2022-11-21T01:16:13;14.50;99.90
9414;DHT22;4746;35.664;139.738;2022-11-21T01:18:43;14.60;99.90
9414;DHT22;4746;35.664;139.738;2022-11-21T01:21:25;14.70;99.90
9414;DHT22;4746;35.664;139.738;2022-11-21T01:23:57;14.80;99.90
9414;DHT22;4746;35.664;139.738;2022-11-21T01:26:27;14.90;99.90
9414;DHT22;4746;35.664;139.738;2022-11-21T01:28:59;15.10;99.90
9414;DHT22;4746;35.664;139.738;2022-11-21T01:31:29;15.10;99.90
9414;DHT22;4746;35.664;139.738;2022-11-21T01:33:58;15.30;99.90
9414;DHT22;4746;35.664;139.738;2022-11-21T01:36:33;15.30;99.90
9414;DHT22;4746;35.664;139.738;2022-11-21T01:39:04;15.40;99.90
9414;DHT22;4746;35.664;139.738;2022-11-21T01:41:40;15.40;99.90
9414;DHT22;4746;35.664;139.738;2022-11-21T01:44:20;15.40;99.90
9414;DHT22;4746;35.664;139.738;2022-11-21T01:46:50;15.50;99.90
9414;DHT22;4746;35.664;139.738;2022-11-21T01:52:13;15.50;99.90
9414;DHT22;4746;35.664;139.738;2022-11-21T01:54:54;15.50;99.90
9414;DHT22;4746;35.664;139.738;2022-11-21T01:57:40;15.40;99.90
9414;DHT22;4746;35.664;139.738;2022-11-21T02:00:25;15.30;99.90
9414;DHT22;4746;35.664;139.738;2022-11-21T02:03:05;15.20;99.90
9414;DHT22;4746;35.664;139.738;2022-11-21T02:05:38;15.30;99.90
9414;DHT22;4746;35.664;139.738;2022-11-21T02:08:18;15.30;99.90
9414;DHT22;4746;35.664;139.738;2022-11-21T02:11:16;15.30;99.90
9414;DHT22;4746;35.664;139.738;2022-11-21T02:13:55;15.30;99.90
9414;DHT22;4746;35.664;139.738;2022-11-21T02:16:23;15.40;99.90
9414;DHT22;4746;35.664;139.738;2022-11-21T02:18:52;15.50;99.90
9414;DHT22;4746;35.664;139.738;2022-11-21T02:24:44;15.60;99.90
9414;DHT22;4746;35.664;139.738;2022-11-21T02:27:16;15.60;99.90
9414;DHT22;4746;35.664;139.738;2022-11-21T02:29:44;15.70;99.90
9414;DHT22;4746;35.664;139.738;2022-11-21T02:32:22;15.70;99.90
9414;DHT22;4746;35.664;139.738;2022-11-21T02:34:57;15.70;99.90
9414;DHT22;4746;35.664;139.738;2022-11-21T02:37:24;15.70;99.90
9414;DHT22;4746;35.664;139.738;2022-11-21T02:39:53;15.80;99.90
9414;DHT22;4746;35.664;139.738;2022-11-21T02:42:41;15.70;99.90
9414;DHT22;4746;35.664;139.738;2022-11-21T02:45:33;15.80;99.90
9414;DHT22;4746;35.664;139.738;2022-11-21T02:48:03;15.80;99.90
9414;DHT22;4746;35.664;139.738;2022-11-21T02:50:42;15.90;99.90
9414;DHT22;4746;35.664;139.738;2022-11-21T02:53:16;15.90;99.90
9414;DHT22;4746;35.664;139.738;2022-11-21T02:55:44;15.90;99.90
9414;DHT22;4746;35.664;139.738;2022-11-21T02:58:12;15.90;99.90
9414;DHT22;4746;35.664;139.738;2022-11-21T03:00:41;15.90;99.90
9414;DHT22;4746;35.664;139.738;2022-11-21T03:03:09;15.90;99.90
9414;DHT22;4746;35.664;139.738;2022-11-21T03:05:38;16.00;99.90
9414;DHT22;4746;35.664;139.738;2022-11-21T03:08:06;15.90;99.90
9414;DHT22;4746;35.664;139.738;2022-11-21T03:10:34;16.00;99.90
9414;DHT22;4746;35.664;139.738;2022-11-21T03:13:02;16.00;99.90
9414;DHT22;4746;35.664;139.738;2022-11-21T03:15:32;16.10;99.90
9414;DHT22;4746;35.664;139.738;2022-11-21T03:18:01;16.20;99.90
9414;DHT22;4746;35.664;139.738;2022-11-21T03:20:30;16.30;99.90
9414;DHT22;4746;35.664;139.738;2022-11-21T03:22:59;16.40;99.90
9414;DHT22;4746;35.664;139.738;2022-11-21T03:25:28;16.50;99.90
9414;DHT22;4746;35.664;139.738;2022-11-21T03:27:55;16.60;99.90
9414;DHT22;4746;35.664;139.738;2022-11-21T03:30:24;16.80;99.90
9414;DHT22;4746;35.664;139.738;2022-11-21T03:32:55;16.90;99.90
9414;DHT22;4746;35.664;139.738;2022-11-21T03:35:24;17.00;99.90
9414;DHT22;4746;35.664;139.738;2022-11-21T03:37:52;17.20;99.90
9414;DHT22;4746;35.664;139.738;2022-11-21T03:40:19;17.30;99.90
9414;DHT22;4746;35.664;139.738;2022-11-21T03:42:47;17.50;99.90
9414;DHT22;4746;35.664;139.738;2022-11-21T03:45:14;17.60;99.90
9414;DHT22;4746;35.664;139.738;2022-11-21T03:47:42;17.70;99.90
9414;DHT22;4746;35.664;139.738;2022-11-21T03:50:10;17.80;99.90
9414;DHT22;4746;35.664;139.738;2022-11-21T03:52:40;18.10;99.90
9414;DHT22;4746;35.664;139.738;2022-11-21T03:55:08;18.20;99.90
9414;DHT22;4746;35.664;139.738;2022-11-21T03:57:35;18.40;99.90
9414;DHT22;4746;35.664;139.738;2022-11-21T04:00:04;18.80;99.90
9414;DHT22;4746;35.664;139.738;2022-11-21T04:02:32;19.00;99.90
9414;DHT22;4746;35.664;139.738;2022-11-21T04:05:00;19.40;99.90
9414;DHT22;4746;35.664;139.738;2022-11-21T04:07:27;19.70;99.90
9414;DHT22;4746;35.664;139.738;2022-11-21T04:09:56;20.10;99.90
9414;DHT22;4746;35.664;139.738;2022-11-21T04:12:24;20.50;99.90
9414;DHT22;4746;35.664;139.738;2022-11-21T04:14:51;20.80;99.90
9414;DHT22;4746;35.664;139.738;2022-11-21T04:17:19;21.20;99.90
9414;DHT22;4746;35.664;139.738;2022-11-21T04:19:46;21.40;99.90
9414;DHT22;4746;35.664;139.738;2022-11-21T04:22:14;21.80;99.90
9414;DHT22;4746;35.664;139.738;2022-11-21T04:24:41;22.00;99.90
9414;DHT22;4746;35.664;139.738;2022-11-21T04:27:09;22.40;99.90
9414;DHT22;4746;35.664;139.738;2022-11-21T04:29:36;22.60;99.90
9414;DHT22;4746;35.664;139.738;2022-11-21T04:32:04;23.00;99.90
9414;DHT22;4746;35.664;139.738;2022-11-21T04:34:31;23.40;99.90
9414;DHT22;4746;35.664;139.738;2022-11-21T04:37:00;23.80;99.90
9414;DHT22;4746;35.664;139.738;2022-11-21T04:39:27;24.00;99.90
9414;DHT22;4746;35.664;139.738;2022-11-21T04:41:55;24.30;99.90
9414;DHT22;4746;35.664;139.738;2022-11-21T04:44:22;24.60;99.90
9414;DHT22;4746;35.664;139.738;2022-11-21T04:46:50;24.60;99.90
9414;DHT22;4746;35.664;139.738;2022-11-21T04:49:18;24.90;99.90
9414;DHT22;4746;35.664;139.738;2022-11-21T04:51:45;25.10;99.90
9414;DHT22;4746;35.664;139.738;2022-11-21T04:54:13;25.30;99.90
9414;DHT22;4746;35.664;139.738;2022-11-21T04:56:40;25.60;99.90
9414;DHT22;4746;35.664;139.738;2022-11-21T04:59:08;26.10;99.90
9414;DHT22;4746;35.664;139.738;2022-11-21T05:01:37;26.20;99.90
9414;DHT22;4746;35.664;139.738;2022-11-21T05:04:05;26.50;99.90
9414;DHT22;4746;35.664;139.738;2022-11-21T05:06:33;26.80;99.90
9414;DHT22;4746;35.664;139.738;2022-11-21T05:09:02;27.00;99.90
9414;DHT22;4746;35.664;139.738;2022-11-21T05:11:30;27.20;99.90
9414;DHT22;4746;35.664;139.738;2022-11-21T05:14:15;27.50;99.90
9414;DHT22;4746;35.664;139.738;2022-11-21T05:16:43;27.90;99.90
9414;DHT22;4746;35.664;139.738;2022-11-21T05:19:10;28.20;99.90
9414;DHT22;4746;35.664;139.738;2022-11-21T05:21:38;28.50;99.90
9414;DHT22;4746;35.664;139.738;2022-11-21T05:24:05;29.00;99.90
9414;DHT22;4746;35.664;139.738;2022-11-21T05:26:33;29.20;97.10
9414;DHT22;4746;35.664;139.738;2022-11-21T05:29:01;29.20;95.60
9414;DHT22;4746;35.664;139.738;2022-11-21T05:31:28;28.90;93.60
9414;DHT22;4746;35.664;139.738;2022-11-21T05:33:56;29.10;95.00
9414;DHT22;4746;35.664;139.738;2022-11-21T05:36:23;29.30;93.50
9414;DHT22;4746;35.664;139.738;2022-11-21T05:38:51;29.50;91.80
9414;DHT22;4746;35.664;139.738;2022-11-21T05:41:18;29.30;90.90
9414;DHT22;4746;35.664;139.738;2022-11-21T05:43:46;29.40;92.50
9414;DHT22;4746;35.664;139.738;2022-11-21T05:46:24;29.50;91.20
9414;DHT22;4746;35.664;139.738;2022-11-21T05:48:53;29.50;90.50
9414;DHT22;4746;35.664;139.738;2022-11-21T05:51:21;29.50;91.40
9414;DHT22;4746;35.664;139.738;2022-11-21T05:53:51;29.60;90.90
9414;DHT22;4746;35.664;139.738;2022-11-21T05:56:19;29.50;90.10
9414;DHT22;4746;35.664;139.738;2022-11-21T05:58:48;29.40;90.20
9414;DHT22;4746;35.664;139.738;2022-11-21T06:01:15;29.30;89.80
9414;DHT22;4746;35.664;139.738;2022-11-21T06:04:03;29.00;90.20
9414;DHT22;4746;35.664;139.738;2022-11-21T06:06:31;29.00;90.90
9414;DHT22;4746;35.664;139.738;2022-11-21T06:08:59;29.00;92.30
9414;DHT22;4746;35.664;139.738;2022-11-21T06:11:28;28.80;92.20
9414;DHT22;4746;35.664;139.738;2022-11-21T06:13:55;29.20;92.50
9414;DHT22;4746;35.664;139.738;2022-11-21T06:16:23;29.40;91.10
9414;DHT22;4746;35.664;139.738;2022-11-21T06:18:51;29.30;90.90
9414;DHT22;4746;35.664;139.738;2022-11-21T06:21:21;29.50;90.60
9414;DHT22;4746;35.664;139.738;2022-11-21T06:23:55;29.40;89.70
9414;DHT22;4746;35.664;139.738;2022-11-21T06:26:26;29.40;89.80
9414;DHT22;4746;35.664;139.738;2022-11-21T06:28:54;29.40;90.00
9414;DHT22;4746;35.664;139.738;2022-11-21T06:31:24;29.60;88.60
9414;DHT22;4746;35.664;139.738;2022-11-21T06:33:57;29.70;88.30
9414;DHT22;4746;35.664;139.738;2022-11-21T06:36:25;29.80;88.80
9414;DHT22;4746;35.664;139.738;2022-11-21T06:38:54;29.90;88.10
9414;DHT22;4746;35.664;139.738;2022-11-21T06:41:24;30.10;87.30
9414;DHT22;4746;35.664;139.738;2022-11-21T06:43:57;30.20;86.30
9414;DHT22;4746;35.664;139.738;2022-11-21T06:46:28;30.30;84.90
9414;DHT22;4746;35.664;139.738;2022-11-21T06:48:56;30.30;84.80
9414;DHT22;4746;35.664;139.738;2022-11-21T06:51:24;30.20;84.80
9414;DHT22;4746;35.664;139.738;2022-11-21T06:53:56;30.10;84.80
9414;DHT22;4746;35.664;139.738;2022-11-21T06:56:26;29.90;84.50
9414;DHT22;4746;35.664;139.738;2022-11-21T06:58:55;29.50;85.50
9414;DHT22;4746;35.664;139.738;2022-11-21T07:01:23;28.70;89.40
9414;DHT22;4746;35.664;139.738;2022-11-21T07:03:52;28.00;92.80
9414;DHT22;4746;35.664;139.738;2022-11-21T07:06:19;27.50;98.30
9414;DHT22;4746;35.664;139.738;2022-11-21T07:08:50;26.70;99.90
9414;DHT22;4746;35.664;139.738;2022-11-21T07:11:19;26.10;99.90
9414;DHT22;4746;35.664;139.738;2022-11-21T07:13:47;25.70;99.90
9414;DHT22;4746;35.664;139.738;2022-11-21T07:16:17;25.00;99.90
9414;DHT22;4746;35.664;139.738;2022-11-21T07:18:44;24.60;99.90
9414;DHT22;4746;35.664;139.738;2022-11-21T07:21:12;24.10;99.90
9414;DHT22;4746;35.664;139.738;2022-11-21T07:23:39;23.70;99.90
9414;DHT22;4746;35.664;139.738;2022-11-21T07:26:09;23.30;99.90
9414;DHT22;4746;35.664;139.738;2022-11-21T07:28:37;23.00;99.90
9414;DHT22;4746;35.664;139.738;2022-11-21T07:31:05;22.60;99.90
9414;DHT22;4746;35.664;139.738;2022-11-21T07:33:32;22.30;99.90
9414;DHT22;4746;35.664;139.738;2022-11-21T07:36:00;21.90;99.90
9414;DHT22;4746;35.664;139.738;2022-11-21T07:38:27;21.60;99.90
9414;DHT22;4746;35.664;139.738;2022-11-21T07:40:56;21.30;99.90
9414;DHT22;4746;35.664;139.738;2022-11-21T07:43:23;21.00;99.90
9414;DHT22;4746;35.664;139.738;2022-11-21T07:45:51;20.80;99.90
9414;DHT22;4746;35.664;139.738;2022-11-21T07:48:18;20.60;99.90
9414;DHT22;4746;35.664;139.738;2022-11-21T07:50:46;20.40;99.90
9414;DHT22;4746;35.664;139.738;2022-11-21T07:53:13;20.20;99.90
9414;DHT22;4746;35.664;139.738;2022-11-21T07:55:41;20.00;99.90
9414;DHT22;4746;35.664;139.738;2022-11-21T07:58:11;19.90;99.90
9414;DHT22;4746;35.664;139.738;2022-11-21T08:00:41;19.80;99.90
9414;DHT22;4746;35.664;139.738;2022-11-21T08:03:09;19.70;99.90
9414;DHT22;4746;35.664;139.738;2022-11-21T08:05:39;19.70;99.90
9414;DHT22;4746;35.664;139.738;2022-11-21T08:08:09;19.50;99.90
9414;DHT22;4746;35.664;139.738;2022-11-21T08:10:40;19.40;99.90
9414;DHT22;4746;35.664;139.738;2022-11-21T08:13:10;19.30;99.90
9414;DHT22;4746;35.664;139.738;2022-11-21T08:15:39;19.20;99.90
9414;DHT22;4746;35.664;139.738;2022-11-21T08:18:14;19.10;99.90
9414;DHT22;4746;35.664;139.738;2022-11-21T08:20:46;19.10;99.90
9414;DHT22;4746;35.664;139.738;2022-11-21T08:23:14;19.00;99.90
9414;DHT22;4746;35.664;139.738;2022-11-21T08:25:42;18.90;99.90
9414;DHT22;4746;35.664;139.738;2022-11-21T08:28:10;18.80;99.90
9414;DHT22;4746;35.664;139.738;2022-11-21T08:30:39;18.80;99.90
9414;DHT22;4746;35.664;139.738;2022-11-21T08:33:07;18.80;99.90
9414;DHT22;4746;35.664;139.738;2022-11-21T08:35:36;18.70;99.90
9414;DHT22;4746;35.664;139.738;2022-11-21T08:38:04;18.70;99.90
9414;DHT22;4746;35.664;139.738;2022-11-21T08:40:33;18.60;99.90
9414;DHT22;4746;35.664;139.738;2022-11-21T08:43:06;18.60;99.90
9414;DHT22;4746;35.664;139.738;2022-11-21T08:45:36;18.50;99.90
9414;DHT22;4746;35.664;139.738;2022-11-21T08:48:09;18.50;99.90
9414;DHT22;4746;35.664;139.738;2022-11-21T08:50:37;18.40;99.90
9414;DHT22;4746;35.664;139.738;2022-11-21T08:53:05;18.30;99.90
9414;DHT22;4746;35.664;139.738;2022-11-21T08:55:32;18.30;99.90
9414;DHT22;4746;35.664;139.738;2022-11-21T08:58:00;18.30;99.90
9414;DHT22;4746;35.664;139.738;2022-11-21T09:00:27;18.20;99.90
9414;DHT22;4746;35.664;139.738;2022-11-21T09:02:55;18.20;99.90
9414;DHT22;4746;35.664;139.738;2022-11-21T09:05:22;18.20;99.90
9414;DHT22;4746;35.664;139.738;2022-11-21T09:07:57;18.20;99.90
9414;DHT22;4746;35.664;139.738;2022-11-21T09:10:25;18.10;99.90
9414;DHT22;4746;35.664;139.738;2022-11-21T09:12:57;18.00;99.90
9414;DHT22;4746;35.664;139.738;2022-11-21T09:15:27;18.00;99.90
9414;DHT22;4746;35.664;139.738;2022-11-21T09:18:15;18.00;99.90
9414;DHT22;4746;35.664;139.738;2022-11-21T09:20:43;18.00;99.90
9414;DHT22;4746;35.664;139.738;2022-11-21T09:23:13;17.90;99.90
9414;DHT22;4746;35.664;139.738;2022-11-21T09:25:42;17.90;99.90
9414;DHT22;4746;35.664;139.738;2022-11-21T09:28:11;17.90;99.90
9414;DHT22;4746;35.664;139.738;2022-11-21T09:30:41;17.90;99.90
9414;DHT22;4746;35.664;139.738;2022-11-21T09:33:13;17.90;99.90
9414;DHT22;4746;35.664;139.738;2022-11-21T09:35:44;17.90;99.90
9414;DHT22;4746;35.664;139.738;2022-11-21T09:38:12;17.80;99.90
9414;DHT22;4746;35.664;139.738;2022-11-21T09:40:44;17.80;99.90
9414;DHT22;4746;35.664;139.738;2022-11-21T09:46:12;17.80;99.90
9414;DHT22;4746;35.664;139.738;2022-11-21T09:48:57;17.70;99.90
9414;DHT22;4746;35.664;139.738;2022-11-21T09:51:31;17.70;99.90
9414;DHT22;4746;35.664;139.738;2022-11-21T09:54:10;17.60;99.90
9414;DHT22;4746;35.664;139.738;2022-11-21T09:56:41;17.60;99.90
9414;DHT22;4746;35.664;139.738;2022-11-21T09:59:36;17.60;99.90
9414;DHT22;4746;35.664;139.738;2022-11-21T10:02:17;17.60;99.90
9414;DHT22;4746;35.664;139.738;2022-11-21T10:04:48;17.50;99.90
9414;DHT22;4746;35.664;139.738;2022-11-21T10:25:16;17.30;99.90
9414;DHT22;4746;35.664;139.738;2022-11-21T10:28:01;17.30;99.90
9414;DHT22;4746;35.664;139.738;2022-11-21T10:30:35;17.30;99.90
9414;DHT22;4746;35.664;139.738;2022-11-21T10:33:45;17.30;99.90
9414;DHT22;4746;35.664;139.738;2022-11-21T10:36:18;17.30;99.90
9414;DHT22;4746;35.664;139.738;2022-11-21T10:39:09;17.30;99.90
9414;DHT22;4746;35.664;139.738;2022-11-21T10:44:42;17.20;99.90
9414;DHT22;4746;35.664;139.738;2022-11-21T10:47:34;17.20;99.90
9414;DHT22;4746;35.664;139.738;2022-11-21T10:56:05;17.20;99.90
9414;DHT22;4746;35.664;139.738;2022-11-21T10:58:45;17.20;99.90
9414;DHT22;4746;35.664;139.738;2022-11-21T11:01:28;17.10;99.90
9414;DHT22;4746;35.664;139.738;2022-11-21T11:04:17;17.10;99.90
9414;DHT22;4746;35.664;139.738;2022-11-21T11:06:46;17.10;99.90
9414;DHT22;4746;35.664;139.738;2022-11-21T11:15:20;17.10;99.90
9414;DHT22;4746;35.664;139.738;2022-11-21T11:18:00;17.10;99.90
9414;DHT22;4746;35.664;139.738;2022-11-21T11:20:37;17.00;99.90
9414;DHT22;4746;35.664;139.738;2022-11-21T11:23:26;17.00;99.90
9414;DHT22;4746;35.664;139.738;2022-11-21T11:25:58;16.90;99.90
9414;DHT22;4746;35.664;139.738;2022-11-21T11:28:33;16.90;99.90
9414;DHT22;4746;35.664;139.738;2022-11-21T11:31:02;16.90;99.90
9414;DHT22;4746;35.664;139.738;2022-11-21T11:33:48;16.90;99.90
9414;DHT22;4746;35.664;139.738;2022-11-21T11:36:37;16.90;99.90
9414;DHT22;4746;35.664;139.738;2022-11-21T11:46:00;16.80;99.90
9414;DHT22;4746;35.664;139.738;2022-11-21T11:50:08;16.80;99.90
9414;DHT22;4746;35.664;139.738;2022-11-21T12:02:05;16.70;99.90
9414;DHT22;4746;35.664;139.738;2022-11-21T12:04:23;16.70;99.90
9414;DHT22;4746;35.664;139.738;2022-11-21T12:12:43;16.60;99.90
9414;DHT22;4746;35.664;139.738;2022-11-21T12:15:18;16.60;99.90
9414;DHT22;4746;35.664;139.738;2022-11-21T12:18:25;16.60;99.90
9414;DHT22;4746;35.664;139.738;2022-11-21T12:21:14;16.60;99.90
9414;DHT22;4746;35.664;139.738;2022-11-21T12:23:56;16.60;99.90
9414;DHT22;4746;35.664;139.738;2022-11-21T12:41:26;16.40;99.90
9414;DHT22;4746;35.664;139.738;2022-11-21T12:50:30;16.30;99.90
9414;DHT22;4746;35.664;139.738;2022-11-21T12:53:39;16.30;99.90
9414;DHT22;4746;35.664;139.738;2022-11-21T12:59:30;16.30;99.90
9414;DHT22;4746;35.664;139.738;2022-11-21T13:02:26;16.30;99.90
9414;DHT22;4746;35.664;139.738;2022-11-21T13:04:56;16.30;99.90
9414;DHT22;4746;35.664;139.738;2022-11-21T13:07:27;16.30;99.90
9414;DHT22;4746;35.664;139.738;2022-11-21T13:09:59;16.30;99.90
9414;DHT22;4746;35.664;139.738;2022-11-21T13:12:38;16.30;99.90
9414;DHT22;4746;35.664;139.738;2022-11-21T13:15:47;16.30;99.90
9414;DHT22;4746;35.664;139.738;2022-11-21T13:18:33;16.30;99.90
9414;DHT22;4746;35.664;139.738;2022-11-21T13:21:43;16.30;99.90
9414;DHT22;4746;35.664;139.738;2022-11-21T13:27:36;16.30;99.90
9414;DHT22;4746;35.664;139.738;2022-11-21T13:32:44;16.30;99.90
9414;DHT22;4746;35.664;139.738;2022-11-21T13:38:06;16.30;99.90
9414;DHT22;4746;35.664;139.738;2022-11-21T13:40:36;16.30;99.90
9414;DHT22;4746;35.664;139.738;2022-11-21T13:43:30;16.30;99.90
9414;DHT22;4746;35.664;139.738;2022-11-21T13:45:57;16.30;99.90
9414;DHT22;4746;35.664;139.738;2022-11-21T13:48:53;16.20;99.90
9414;DHT22;4746;35.664;139.738;2022-11-21T13:51:50;16.20;99.90
9414;DHT22;4746;35.664;139.738;2022-11-21T13:57:46;16.20;99.90
9414;DHT22;4746;35.664;139.738;2022-11-21T14:12:16;16.10;99.90
9414;DHT22;4746;35.664;139.738;2022-11-21T14:18:23;16.10;99.90
9414;DHT22;4746;35.664;139.738;2022-11-21T14:20:57;16.10;99.90
9414;DHT22;4746;35.664;139.738;2022-11-21T14:23:31;16.00;99.90
9414;DHT22;4746;35.664;139.738;2022-11-21T14:26:10;16.00;99.90
9414;DHT22;4746;35.664;139.738;2022-11-21T14:28:40;16.00;99.90
9414;DHT22;4746;35.664;139.738;2022-11-21T14:31:09;16.00;99.90
9414;DHT22;4746;35.664;139.738;2022-11-21T14:33:40;16.00;99.90
9414;DHT22;4746;35.664;139.738;2022-11-21T14:41:22;16.00;99.90
9414;DHT22;4746;35.664;139.738;2022-11-21T14:46:30;16.00;99.90
9414;DHT22;4746;35.664;139.738;2022-11-21T14:51:50;15.90;99.90
9414;DHT22;4746;35.664;139.738;2022-11-21T14:54:53;15.90;99.90
9414;DHT22;4746;35.664;139.738;2022-11-21T14:57:29;15.90;99.90
9414;DHT22;4746;35.664;139.738;2022-11-21T15:00:05;15.90;99.90
9414;DHT22;4746;35.664;139.738;2022-11-21T15:02:33;15.90;99.90
9414;DHT22;4746;35.664;139.738;2022-11-21T15:05:04;15.90;99.90
9414;DHT22;4746;35.664;139.738;2022-11-21T15:07:42;15.90;99.90
9414;DHT22;4746;35.664;139.738;2022-11-21T15:10:14;15.80;99.90
9414;DHT22;4746;35.664;139.738;2022-11-21T15:12:54;15.80;99.90
9414;DHT22;4746;35.664;139.738;2022-11-21T15:15:37;15.80;99.90
9414;DHT22;4746;35.664;139.738;2022-11-21T15:18:24;15.80;99.90
9414;DHT22;4746;35.664;139.738;2022-11-21T15:20:58;15.70;99.90
9414;DHT22;4746;35.664;139.738;2022-11-21T15:23:29;15.70;99.90
9414;DHT22;4746;35.664;139.738;2022-11-21T15:25:59;15.60;99.90
9414;DHT22;4746;35.664;139.738;2022-11-21T15:28:28;15.60;99.90
9414;DHT22;4746;35.664;139.738;2022-11-21T15:31:15;15.60;99.90
9414;DHT22;4746;35.664;139.738;2022-11-21T15:34:00;15.60;99.90
9414;DHT22;4746;35.664;139.738;2022-11-21T15:36:31;15.50;99.90
9414;DHT22;4746;35.664;139.738;2022-11-21T15:41:30;15.50;99.90
9414;DHT22;4746;35.664;139.738;2022-11-21T15:46:34;15.40;99.90
9414;DHT22;4746;35.664;139.738;2022-11-21T15:49:13;15.40;99.90
9414;DHT22;4746;35.664;139.738;2022-11-21T15:51:43;15.40;99.90
9414;DHT22;4746;35.664;139.738;2022-11-21T15:54:19;15.40;99.90
9414;DHT22;4746;35.664;139.738;2022-11-21T15:56:48;15.30;99.90
9414;DHT22;4746;35.664;139.738;2022-11-21T15:59:15;15.30;99.90
9414;DHT22;4746;35.664;139.738;2022-11-21T16:01:45;15.20;99.90
9414;DHT22;4746;35.664;139.738;2022-11-21T16:04:13;15.20;99.90
9414;DHT22;4746;35.664;139.738;2022-11-21T16:06:41;15.20;99.90
9414;DHT22;4746;35.664;139.738;2022-11-21T16:09:08;15.20;99.90
9414;DHT22;4746;35.664;139.738;2022-11-21T16:11:36;15.20;99.90
9414;DHT22;4746;35.664;139.738;2022-11-21T16:14:06;15.10;99.90
9414;DHT22;4746;35.664;139.738;2022-11-21T16:16:40;15.10;99.90
9414;DHT22;4746;35.664;139.738;2022-11-21T16:19:12;15.10;99.90
9414;DHT22;4746;35.664;139.738;2022-11-21T16:21:41;15.00;99.90
9414;DHT22;4746;35.664;139.738;2022-11-21T16:24:08;15.00;99.90
9414;DHT22;4746;35.664;139.738;2022-11-21T16:26:36;15.00;99.90
9414;DHT22;4746;35.664;139.738;2022-11-21T16:29:04;15.00;99.90
9414;DHT22;4746;35.664;139.738;2022-11-21T16:31:32;15.00;99.90
9414;DHT22;4746;35.664;139.738;2022-11-21T16:33:59;14.90;99.90
9414;DHT22;4746;35.664;139.738;2022-11-21T16:36:31;14.90;99.90
9414;DHT22;4746;35.664;139.738;2022-11-21T16:38:58;14.90;99.90
9414;DHT22;4746;35.664;139.738;2022-11-21T16:41:29;14.90;99.90
9414;DHT22;4746;35.664;139.738;2022-11-21T16:43:57;14.90;99.90
9414;DHT22;4746;35.664;139.738;2022-11-21T16:46:24;14.80;99.90
9414;DHT22;4746;35.664;139.738;2022-11-21T16:49:02;14.80;99.90
9414;DHT22;4746;35.664;139.738;2022-11-21T16:51:30;14.80;99.90
9414;DHT22;4746;35.664;139.738;2022-11-21T16:53:58;14.80;99.90
9414;DHT22;4746;35.664;139.738;2022-11-21T16:56:26;14.80;99.90
9414;DHT22;4746;35.664;139.738;2022-11-21T16:58:53;14.80;99.90
9414;DHT22;4746;35.664;139.738;2022-11-21T17:01:24;14.80;99.90
9414;DHT22;4746;35.664;139.738;2022-11-21T17:03:53;14.80;99.90
9414;DHT22;4746;35.664;139.738;2022-11-21T17:06:22;14.80;99.90
9414;DHT22;4746;35.664;139.738;2022-11-21T17:08:54;14.80;99.90
9414;DHT22;4746;35.664;139.738;2022-11-21T17:11:24;14.80;99.90
9414;DHT22;4746;35.664;139.738;2022-11-21T17:13:56;14.80;99.90
9414;DHT22;4746;35.664;139.738;2022-11-21T17:16:26;14.80;99.90
9414;DHT22;4746;35.664;139.738;2022-11-21T17:19:01;14.70;99.90
9414;DHT22;4746;35.664;139.738;2022-11-21T17:21:30;14.70;99.90
9414;DHT22;4746;35.664;139.738;2022-11-21T17:23:58;14.70;99.90
9414;DHT22;4746;35.664;139.738;2022-11-21T17:26:27;14.70;99.90
9414;DHT22;4746;35.664;139.738;2022-11-21T17:28:57;14.70;99.90
9414;DHT22;4746;35.664;139.738;2022-11-21T17:31:29;14.70;99.90
9414;DHT22;4746;35.664;139.738;2022-11-21T17:33:57;14.70;99.90
9414;DHT22;4746;35.664;139.738;2022-11-21T17:36:27;14.70;99.90
9414;DHT22;4746;35.664;139.738;2022-11-21T17:38:55;14.70;99.90
9414;DHT22;4746;35.664;139.738;2022-11-21T17:41:24;14.70;99.90
9414;DHT22;4746;35.664;139.738;2022-11-21T17:43:56;14.70;99.90
9414;DHT22;4746;35.664;139.738;2022-11-21T17:46:26;14.70;99.90
9414;DHT22;4746;35.664;139.738;2022-11-21T17:48:55;14.70;99.90
9414;DHT22;4746;35.664;139.738;2022-11-21T17:51:26;14.70;99.90
9414;DHT22;4746;35.664;139.738;2022-11-21T17:54:02;14.70;99.90
9414;DHT22;4746;35.664;139.738;2022-11-21T17:56:33;14.70;99.90
9414;DHT22;4746;35.664;139.738;2022-11-21T17:59:03;14.70;99.90
9414;DHT22;4746;35.664;139.738;2022-11-21T18:01:32;14.60;99.90
9414;DHT22;4746;35.664;139.738;2022-11-21T18:04:06;14.60;99.90
9414;DHT22;4746;35.664;139.738;2022-11-21T18:06:38;14.60;99.90
9414;DHT22;4746;35.664;139.738;2022-11-21T18:09:09;14.60;99.90
9414;DHT22;4746;35.664;139.738;2022-11-21T18:11:38;14.60;99.90
9414;DHT22;4746;35.664;139.738;2022-11-21T18:14:09;14.60;99.90